createdAt,value
2023-02-18T00:06:55.753Z,5.37
2023-02-18T00:16:58.971Z,4.90
2023-02-18T00:27:03.520Z,5.20
2023-02-18T00:37:06.714Z,5.00
2023-02-18T00:47:11.323Z,5.87
2023-02-18T00:57:14.493Z,5.70
2023-02-18T01:07:19.048Z,5.70
2023-02-18T01:17:22.321Z,5.07
2023-02-18T01:27:26.967Z,4.87
2023-02-18T01:37:30.191Z,4.90
2023-02-18T01:47:34.764Z,4.90
2023-02-18T01:57:39.624Z,5.13
2023-02-18T02:07:45.331Z,4.87
2023-02-18T02:18:00.802Z,4.97
2023-02-18T02:28:45.796Z,4.37
2023-02-18T02:38:57.536Z,4.40
2023-02-18T02:49:08.780Z,4.63
2023-02-18T02:59:17.314Z,4.30
2023-02-18T03:09:31.508Z,4.47
2023-02-18T03:19:40.902Z,4.00
2023-02-18T03:29:48.071Z,4.33
2023-02-18T03:39:58.456Z,3.93
2023-02-18T03:50:02.686Z,4.37
2023-02-18T04:00:09.478Z,4.03
2023-02-18T04:10:18.567Z,4.27
2023-02-18T04:20:23.581Z,4.17
2023-02-18T04:30:27.123Z,4.00
2023-02-18T04:40:31.703Z,3.67
2023-02-18T04:50:35.539Z,3.63
2023-02-18T05:00:40.288Z,4.10
2023-02-18T05:10:43.440Z,3.87
2023-02-18T05:20:48.055Z,3.73
2023-02-18T05:30:51.205Z,3.53
2023-02-18T05:40:56.657Z,3.40
2023-02-18T05:50:59.841Z,3.20
2023-02-18T06:01:04.585Z,3.20
2023-02-18T06:11:09.648Z,3.70
2023-02-18T06:21:14.187Z,3.43
2023-02-18T06:31:17.526Z,3.30
2023-02-18T06:41:22.075Z,3.20
2023-02-18T06:51:25.519Z,3.20
2023-02-18T07:01:30.030Z,3.20
2023-02-18T07:11:33.323Z,3.13
2023-02-18T07:21:37.916Z,3.37
2023-02-18T07:31:41.188Z,2.83
2023-02-18T07:41:45.816Z,2.90
2023-02-18T07:51:52.049Z,3.20
2023-02-18T08:01:56.739Z,3.23
2023-02-18T08:12:00.145Z,3.50
2023-02-18T08:22:05.090Z,3.17
2023-02-18T08:32:08.363Z,3.00
2023-02-18T08:42:13.006Z,3.43
2023-02-18T08:52:16.173Z,3.50
2023-02-18T09:02:20.849Z,2.83
2023-02-18T09:12:23.977Z,3.60
2023-02-18T09:22:28.715Z,3.70
2023-02-18T09:32:35.149Z,3.53
2023-02-18T09:42:40.043Z,3.10
2023-02-18T09:52:43.237Z,2.93
2023-02-18T10:02:56.412Z,3.13
2023-02-18T10:13:00.147Z,2.80
2023-02-18T10:23:06.299Z,2.33
2023-02-18T10:33:23.468Z,2.50
2023-02-18T10:43:34.904Z,1.90
2023-02-18T10:53:41.497Z,1.25
2023-02-18T11:03:48.559Z,1.17
2023-02-18T11:13:55.244Z,1.10
2023-02-18T11:24:09.551Z,0.98
2023-02-18T11:34:18.204Z,1.30
2023-02-18T11:44:25.247Z,1.80
2023-02-18T11:54:31.266Z,1.70
2023-02-18T12:04:42.792Z,2.08
2023-02-18T12:14:46.292Z,1.80
2023-02-18T12:25:10.256Z,1.95
2023-02-18T12:35:39.871Z,1.80
2023-02-18T12:46:03.137Z,2.20
2023-02-18T12:56:35.557Z,2.05
2023-02-18T13:07:03.651Z,1.90
2023-02-18T13:17:10.517Z,1.77
2023-02-18T13:27:21.869Z,2.00
2023-02-18T13:37:31.967Z,1.80
2023-02-18T13:47:41.618Z,1.60
2023-02-18T13:57:47.872Z,1.88
2023-02-18T14:07:53.852Z,2.03
2023-02-18T14:18:11.192Z,2.10
2023-02-18T14:28:38.779Z,2.00
2023-02-18T14:38:50.349Z,2.00
2023-02-18T14:49:14.722Z,2.10
2023-02-18T14:59:18.626Z,2.10
2023-02-18T15:09:23.670Z,1.77
2023-02-18T15:19:31.182Z,2.13
2023-02-18T15:29:38.240Z,2.00
2023-02-18T15:39:42.460Z,1.73
2023-02-18T15:49:51.558Z,1.90
2023-02-18T16:00:13.266Z,1.77
2023-02-18T16:10:23.493Z,1.58
2023-02-18T16:20:30.773Z,1.88
2023-02-18T16:30:36.963Z,2.00
2023-02-18T16:40:41.238Z,2.10
2023-02-18T16:50:46.526Z,2.28
2023-02-18T17:00:52.333Z,2.58
2023-02-18T17:10:59.328Z,2.13
2023-02-18T17:21:03.539Z,2.78
2023-02-18T17:31:10.645Z,3.42
2023-02-18T17:41:14.370Z,3.90
2023-02-18T17:51:25.665Z,3.20
2023-02-18T18:01:28.910Z,3.58
2023-02-18T18:11:33.861Z,5.38
2023-02-18T18:21:37.422Z,4.50
2023-02-18T18:31:42.591Z,4.32
2023-02-18T18:41:45.947Z,4.38
2023-02-18T18:51:50.496Z,4.17
2023-02-18T19:01:54.071Z,5.20
2023-02-18T19:11:58.608Z,5.47
2023-02-18T19:22:01.804Z,4.47
2023-02-18T19:32:06.435Z,5.27
2023-02-18T19:42:09.712Z,5.93
2023-02-18T19:52:14.288Z,5.47
2023-02-18T20:02:19.350Z,5.30
2023-02-18T20:12:24.543Z,5.37
2023-02-18T20:22:28.071Z,14.23
2023-02-18T20:32:32.831Z,6.90
2023-02-18T20:42:36.004Z,6.13
2023-02-18T20:52:40.886Z,6.17
2023-02-18T21:02:44.129Z,6.23
2023-02-18T21:12:48.673Z,7.33
2023-02-18T21:22:53.358Z,6.03
2023-02-18T21:32:59.718Z,5.97
2023-02-18T21:43:02.887Z,6.70
2023-02-18T21:53:07.449Z,6.63
2023-02-18T22:03:10.631Z,6.80
2023-02-18T22:13:15.241Z,7.47
2023-02-18T22:23:18.640Z,7.57
2023-02-18T22:33:23.200Z,6.70
2023-02-18T22:43:26.508Z,6.93
2023-02-18T22:53:31.030Z,6.97
2023-02-18T23:03:35.253Z,6.77
2023-02-18T23:13:40.117Z,6.87
2023-02-18T23:23:43.350Z,6.07
2023-02-18T23:33:52.089Z,6.70
2023-02-18T23:43:55.930Z,6.80
2023-02-18T23:54:03.840Z,6.60
